createdAt,value
2023-03-26T00:01:42.064Z,94589.00
2023-03-26T00:05:41.899Z,94587.00
2023-03-26T00:09:42.067Z,94585.00
2023-03-26T00:13:42.209Z,94585.00
2023-03-26T00:17:42.580Z,94591.00
2023-03-26T00:21:42.653Z,94585.00
2023-03-26T00:25:42.748Z,94579.00
2023-03-26T00:29:42.948Z,94585.00
2023-03-26T00:33:45.209Z,94591.00
2023-03-26T00:37:43.435Z,94575.00
2023-03-26T00:41:43.613Z,94567.00
2023-03-26T00:45:43.699Z,94571.00
2023-03-26T00:49:46.646Z,94569.00
2023-03-26T00:53:43.906Z,94567.00
2023-03-26T00:57:44.595Z,94569.00
2023-03-26T01:01:43.840Z,94566.00
2023-03-26T01:05:43.745Z,94552.00
2023-03-26T01:09:43.745Z,94552.00
2023-03-26T01:13:43.792Z,94550.00
2023-03-26T01:17:44.129Z,94548.00
2023-03-26T01:21:44.615Z,94550.00
2023-03-26T01:25:44.435Z,94554.00
2023-03-26T01:29:44.645Z,94552.00
2023-03-26T01:33:45.255Z,94544.00
2023-03-26T01:37:45.102Z,94532.00
2023-03-26T01:41:45.665Z,94522.00
2023-03-26T01:45:45.316Z,94528.00
2023-03-26T01:49:45.613Z,94532.00
2023-03-26T01:53:45.728Z,94532.00
2023-03-26T01:57:46.128Z,94536.00
2023-03-26T02:01:46.277Z,94538.00
2023-03-26T02:05:46.322Z,94534.00
2023-03-26T02:09:46.492Z,94538.00
2023-03-26T02:13:47.661Z,94538.00
2023-03-26T02:17:47.169Z,94548.00
2023-03-26T02:21:47.064Z,94544.00
2023-03-26T02:25:49.126Z,94534.00
2023-03-26T02:29:47.443Z,94534.00
2023-03-26T02:33:48.114Z,94536.00
2023-03-26T02:37:48.712Z,94536.00
2023-03-26T02:41:48.211Z,94528.00
2023-03-26T02:45:48.670Z,94524.00
2023-03-26T02:49:48.417Z,94520.00
2023-03-26T02:53:48.641Z,94520.00
2023-03-26T02:57:49.187Z,94526.00
2023-03-26T03:01:49.007Z,94522.00
2023-03-26T03:05:49.153Z,94514.00
2023-03-26T03:09:49.673Z,94514.00
2023-03-26T03:13:49.606Z,94505.00
2023-03-26T03:17:49.782Z,94501.00
2023-03-26T03:21:50.168Z,94503.00
2023-03-26T03:25:50.155Z,94501.00
2023-03-26T03:29:50.653Z,94493.00
2023-03-26T03:33:50.557Z,94489.00
2023-03-26T03:37:50.793Z,94481.00
2023-03-26T03:41:51.177Z,94479.00
2023-03-26T03:45:51.269Z,94481.00
2023-03-26T03:49:51.702Z,94485.00
2023-03-26T03:53:51.661Z,94477.00
2023-03-26T03:57:51.696Z,94473.00
2023-03-26T04:01:51.880Z,94464.00
2023-03-26T04:05:52.324Z,94462.00
2023-03-26T04:09:52.285Z,94471.00
2023-03-26T04:13:52.475Z,94467.00
2023-03-26T04:17:52.777Z,94460.00
2023-03-26T04:21:52.831Z,94456.00
2023-03-26T04:25:53.397Z,94456.00
2023-03-26T04:29:53.234Z,94440.00
2023-03-26T04:33:53.444Z,94436.00
2023-03-26T04:37:53.718Z,94430.00
2023-03-26T04:41:54.218Z,94434.00
2023-03-26T04:45:54.602Z,94428.00
2023-03-26T04:49:54.265Z,94418.00
2023-03-26T04:53:54.439Z,94413.00
2023-03-26T04:57:54.632Z,94403.00
2023-03-26T05:01:54.832Z,94401.00
2023-03-26T05:05:55.217Z,94395.00
2023-03-26T05:09:55.251Z,94387.00
2023-03-26T05:13:55.464Z,94391.00
2023-03-26T05:17:55.715Z,94393.00
2023-03-26T05:21:56.257Z,94403.00
2023-03-26T05:25:56.047Z,94399.00
2023-03-26T05:29:56.205Z,94401.00
2023-03-26T05:33:56.480Z,94403.00
2023-03-26T05:37:56.776Z,94393.00
2023-03-26T05:41:56.800Z,94387.00
2023-03-26T05:45:57.278Z,94381.00
2023-03-26T05:49:57.244Z,94362.00
2023-03-26T05:53:57.746Z,94356.00
2023-03-26T05:57:57.604Z,94348.00
2023-03-26T06:01:58.226Z,94342.00
2023-03-26T06:05:58.277Z,94338.00
2023-03-26T06:09:58.222Z,94334.00
2023-03-26T06:13:58.738Z,94326.00
2023-03-26T06:17:58.667Z,94325.00
2023-03-26T06:21:59.251Z,94323.00
2023-03-26T06:25:59.293Z,94313.00
2023-03-26T06:29:59.196Z,94307.00
2023-03-26T06:33:59.760Z,94305.00
2023-03-26T06:37:59.586Z,94313.00
2023-03-26T06:42:00.234Z,94297.00
2023-03-26T06:46:00.012Z,94303.00
2023-03-26T06:50:00.170Z,94287.00
2023-03-26T06:54:00.774Z,94273.00
2023-03-26T06:58:00.527Z,94281.00
2023-03-26T07:02:00.735Z,94266.00
2023-03-26T07:06:00.906Z,94256.00
2023-03-26T07:10:01.267Z,94236.00
2023-03-26T07:14:01.160Z,94226.00
2023-03-26T07:18:01.811Z,94209.00
2023-03-26T07:22:01.542Z,94197.00
2023-03-26T07:26:01.611Z,94195.00
2023-03-26T07:30:01.782Z,94209.00
2023-03-26T07:34:02.490Z,94211.00
2023-03-26T07:38:02.277Z,94211.00
2023-03-26T07:42:02.181Z,94201.00
2023-03-26T07:46:02.347Z,94199.00
2023-03-26T07:50:02.803Z,94189.00
2023-03-26T07:54:02.796Z,94160.00
2023-03-26T07:58:03.425Z,94144.00
2023-03-26T08:02:02.812Z,94115.00
2023-03-26T08:06:02.985Z,94122.00
2023-03-26T08:10:03.272Z,94093.00
2023-03-26T08:14:03.184Z,94083.00
2023-03-26T08:18:03.296Z,94089.00
2023-03-26T08:22:03.401Z,94095.00
2023-03-26T08:26:03.809Z,94089.00
2023-03-26T08:30:03.586Z,94079.00
2023-03-26T08:34:03.805Z,94060.00
2023-03-26T08:38:03.814Z,94046.00
2023-03-26T08:42:04.287Z,94040.00
2023-03-26T08:46:04.339Z,94036.00
2023-03-26T08:50:04.199Z,94027.00
2023-03-26T08:54:05.327Z,94011.00
2023-03-26T08:58:04.464Z,94007.00
2023-03-26T09:02:04.820Z,93995.00
2023-03-26T09:06:04.727Z,93985.00
2023-03-26T09:10:05.335Z,94001.00
2023-03-26T09:14:04.984Z,93999.00
2023-03-26T09:18:05.143Z,93999.00
2023-03-26T09:22:05.306Z,93999.00
2023-03-26T09:26:05.843Z,94003.00
2023-03-26T09:30:05.506Z,94003.00
2023-03-26T09:34:05.597Z,93999.00
2023-03-26T09:38:05.765Z,94001.00
2023-03-26T09:42:06.354Z,93993.00
2023-03-26T09:46:06.379Z,93983.00
2023-03-26T09:50:06.201Z,93972.00
2023-03-26T09:54:06.300Z,93966.00
2023-03-26T09:58:06.490Z,93960.00
2023-03-26T10:02:06.821Z,93948.00
2023-03-26T10:06:06.728Z,93946.00
2023-03-26T10:10:07.382Z,93934.00
2023-03-26T10:14:06.994Z,93936.00
2023-03-26T10:18:26.774Z,93930.00
2023-03-26T10:22:08.378Z,93927.00
2023-03-26T10:26:07.156Z,93923.00
2023-03-26T10:30:07.268Z,93923.00
2023-03-26T10:34:07.358Z,93930.00
2023-03-26T10:38:07.526Z,93925.00
2023-03-26T10:42:07.889Z,93925.00
2023-03-26T10:46:07.959Z,93927.00
2023-03-26T10:50:08.013Z,93923.00
2023-03-26T10:54:08.394Z,93915.00
2023-03-26T10:58:08.204Z,93917.00
2023-03-26T11:02:09.366Z,93919.00
2023-03-26T11:06:08.576Z,93921.00
2023-03-26T11:10:08.708Z,93917.00
2023-03-26T11:14:08.900Z,93907.00
2023-03-26T11:18:09.436Z,93897.00
2023-03-26T11:22:09.209Z,93887.00
2023-03-26T11:26:09.382Z,93891.00
2023-03-26T11:30:09.493Z,93882.00
2023-03-26T11:34:09.887Z,93876.00
2023-03-26T11:38:09.839Z,93868.00
2023-03-26T11:42:10.383Z,93858.00
2023-03-26T11:46:10.141Z,93844.00
2023-03-26T11:50:10.233Z,93835.00
2023-03-26T11:54:10.400Z,93829.00
2023-03-26T11:58:11.413Z,93825.00
2023-03-26T12:02:10.650Z,93825.00
2023-03-26T12:06:10.790Z,93821.00
2023-03-26T12:10:18.090Z,93823.00
2023-03-26T12:14:11.860Z,93811.00
2023-03-26T12:18:10.947Z,93797.00
2023-03-26T12:22:10.793Z,93795.00
2023-03-26T12:26:10.921Z,93797.00
2023-03-26T12:30:11.470Z,93809.00
2023-03-26T12:34:11.243Z,93809.00
2023-03-26T12:38:11.926Z,93811.00
2023-03-26T12:43:40.204Z,93815.00
2023-03-26T12:47:55.603Z,93827.00
2023-03-26T12:50:12.922Z,93811.00
2023-03-26T12:54:11.536Z,93809.00
2023-03-26T12:58:13.279Z,93819.00
2023-03-26T13:06:31.225Z,93844.00
2023-03-26T13:10:31.472Z,93850.00
2023-03-26T13:14:30.745Z,93872.00
2023-03-26T13:18:30.731Z,93874.00
2023-03-26T13:22:30.757Z,93884.00
2023-03-26T13:26:30.325Z,93882.00
2023-03-26T13:30:30.457Z,93887.00
2023-03-26T13:34:30.771Z,93893.00
2023-03-26T13:38:30.779Z,93897.00
2023-03-26T13:42:30.617Z,93882.00
2023-03-26T13:46:31.797Z,93882.00
2023-03-26T13:50:31.060Z,93884.00
2023-03-26T13:54:31.281Z,93882.00
2023-03-26T13:58:34.640Z,93872.00
2023-03-26T14:02:31.323Z,93874.00
2023-03-26T14:06:31.811Z,93874.00
2023-03-26T14:10:31.270Z,93880.00
2023-03-26T14:14:31.251Z,93885.00
2023-03-26T14:18:31.293Z,93884.00
2023-03-26T14:22:31.148Z,93880.00
2023-03-26T14:26:31.283Z,93880.00
2023-03-26T14:30:31.268Z,93876.00
2023-03-26T14:34:31.810Z,93876.00
2023-03-26T14:38:31.758Z,93858.00
2023-03-26T14:42:31.752Z,93850.00
2023-03-26T14:46:32.450Z,93848.00
2023-03-26T14:50:32.119Z,93839.00
2023-03-26T14:54:32.804Z,93846.00
2023-03-26T14:58:32.545Z,93872.00
2023-03-26T15:02:32.945Z,93866.00
2023-03-26T15:06:33.322Z,93874.00
2023-03-26T15:10:33.193Z,93884.00
2023-03-26T15:14:33.828Z,93876.00
2023-03-26T15:18:34.324Z,93868.00
2023-03-26T15:22:33.775Z,93872.00
2023-03-26T15:26:34.325Z,93876.00
2023-03-26T15:30:33.961Z,93876.00
2023-03-26T15:34:34.324Z,93858.00
2023-03-26T15:38:33.910Z,93840.00
2023-03-26T15:42:35.536Z,93827.00
2023-03-26T15:46:33.833Z,93829.00
2023-03-26T15:50:33.825Z,93803.00
2023-03-26T15:54:33.818Z,93793.00
2023-03-26T15:58:33.728Z,93799.00
2023-03-26T16:02:33.829Z,93799.00
2023-03-26T16:06:33.614Z,93793.00
2023-03-26T16:10:33.817Z,93791.00
2023-03-26T16:14:33.529Z,93805.00
2023-03-26T16:18:33.812Z,93795.00
2023-03-26T16:22:34.339Z,93795.00
2023-03-26T16:26:34.982Z,93807.00
2023-03-26T16:30:34.341Z,93795.00
2023-03-26T16:34:34.357Z,93774.00
2023-03-26T16:38:35.318Z,93766.00
2023-03-26T16:42:34.318Z,93754.00
2023-03-26T16:46:34.382Z,93750.00
2023-03-26T16:50:34.343Z,93739.00
2023-03-26T16:54:34.587Z,93737.00
2023-03-26T16:58:34.399Z,93742.00
2023-03-26T17:02:34.382Z,93760.00
2023-03-26T17:06:34.664Z,93770.00
2023-03-26T17:10:34.468Z,93756.00
2023-03-26T17:14:34.919Z,93756.00
2023-03-26T17:18:34.424Z,93746.00
2023-03-26T17:22:34.348Z,93760.00
2023-03-26T17:26:34.269Z,93762.00
2023-03-26T17:30:34.272Z,93758.00
2023-03-26T17:34:34.371Z,93760.00
2023-03-26T17:38:34.399Z,93762.00
2023-03-26T17:42:34.370Z,93744.00
2023-03-26T17:46:34.377Z,93750.00
2023-03-26T17:50:34.232Z,93742.00
2023-03-26T17:54:34.369Z,93764.00
2023-03-26T17:58:34.115Z,93780.00
2023-03-26T18:02:34.163Z,93793.00
2023-03-26T18:06:34.074Z,93799.00
2023-03-26T18:10:34.386Z,93803.00
2023-03-26T18:14:34.402Z,93813.00
2023-03-26T18:18:33.939Z,93825.00
2023-03-26T18:22:34.387Z,93823.00
2023-03-26T18:26:33.868Z,93782.00
2023-03-26T18:30:34.411Z,93762.00
2023-03-26T18:34:34.277Z,93770.00
2023-03-26T18:38:35.561Z,93780.00
2023-03-26T18:42:34.906Z,93774.00
2023-03-26T18:46:34.410Z,93766.00
2023-03-26T18:50:34.401Z,93766.00
2023-03-26T18:54:34.376Z,93762.00
2023-03-26T18:58:34.395Z,93764.00
2023-03-26T19:02:34.638Z,93774.00
2023-03-26T19:06:34.438Z,93778.00
2023-03-26T19:10:34.413Z,93774.00
2023-03-26T19:14:34.396Z,93768.00
2023-03-26T19:18:34.424Z,93770.00
2023-03-26T19:22:34.181Z,93780.00
2023-03-26T19:26:34.420Z,93786.00
2023-03-26T19:30:34.470Z,93795.00
2023-03-26T19:34:34.440Z,93791.00
2023-03-26T19:38:34.457Z,93788.00
2023-03-26T19:42:42.925Z,93786.00
2023-03-26T19:47:47.346Z,93786.00
2023-03-26T19:50:35.485Z,93780.00
2023-03-26T19:54:33.908Z,93778.00
2023-03-26T19:58:33.834Z,93772.00
2023-03-26T20:02:33.914Z,93774.00
2023-03-26T20:06:43.101Z,93772.00
2023-03-26T20:10:35.464Z,93770.00
2023-03-26T20:14:34.452Z,93762.00
2023-03-26T20:18:34.277Z,93760.00
2023-03-26T20:22:34.258Z,93772.00
2023-03-26T20:26:34.500Z,93780.00
2023-03-26T20:30:37.826Z,93778.00
2023-03-26T20:34:34.508Z,93774.00
2023-03-26T20:38:39.574Z,93772.00
2023-03-26T20:42:35.449Z,93778.00
2023-03-26T20:46:34.528Z,93774.00
2023-03-26T20:50:35.985Z,93770.00
2023-03-26T20:54:34.525Z,93770.00
2023-03-26T20:58:34.975Z,93778.00
2023-03-26T21:02:34.571Z,93780.00
2023-03-26T21:06:34.476Z,93774.00
2023-03-26T21:10:34.515Z,93778.00
2023-03-26T21:14:34.007Z,93774.00
2023-03-26T21:18:33.914Z,93774.00
2023-03-26T21:22:33.847Z,93774.00
2023-03-26T21:26:33.987Z,93772.00
2023-03-26T21:30:35.036Z,93772.00
2023-03-26T21:34:34.211Z,93770.00
2023-03-26T21:38:33.996Z,93764.00
2023-03-26T21:42:33.993Z,93764.00
2023-03-26T21:46:34.026Z,93768.00
2023-03-26T21:50:33.976Z,93760.00
2023-03-26T21:54:33.654Z,93758.00
2023-03-26T21:58:33.965Z,93760.00
2023-03-26T22:02:33.565Z,93760.00
2023-03-26T22:06:33.972Z,93758.00
2023-03-26T22:10:33.984Z,93756.00
2023-03-26T22:14:33.458Z,93756.00
2023-03-26T22:18:33.492Z,93756.00
2023-03-26T22:22:33.506Z,93752.00
2023-03-26T22:26:33.485Z,93752.00
2023-03-26T22:30:33.517Z,93746.00
2023-03-26T22:34:33.287Z,93744.00
2023-03-26T22:38:33.525Z,93744.00
2023-03-26T22:42:33.495Z,93735.00
2023-03-26T22:46:33.573Z,93735.00
2023-03-26T22:50:33.221Z,93741.00
2023-03-26T22:54:33.222Z,93737.00
2023-03-26T22:58:33.480Z,93733.00
2023-03-26T23:02:33.557Z,93729.00
2023-03-26T23:08:59.173Z,93727.00
2023-03-26T23:12:59.404Z,93735.00
2023-03-26T23:16:59.381Z,93735.00
2023-03-26T23:20:59.069Z,93739.00
2023-03-26T23:24:59.042Z,93737.00
2023-03-26T23:28:59.460Z,93735.00
2023-03-26T23:32:59.437Z,93729.00
2023-03-26T23:36:59.421Z,93725.00
2023-03-26T23:40:59.086Z,93731.00
2023-03-26T23:44:59.038Z,93727.00
2023-03-26T23:48:59.391Z,93733.00
2023-03-26T23:52:59.415Z,93735.00
2023-03-26T23:56:59.477Z,93742.00
